createdAt,value
2018-06-13T00:01:26.465Z,9.15
2018-06-13T00:03:54.696Z,10.30
2018-06-13T00:06:22.868Z,8.43
2018-06-13T00:08:51.028Z,9.47
2018-06-13T00:11:19.240Z,10.00
2018-06-13T00:13:47.424Z,9.00
2018-06-13T00:16:15.600Z,9.20
2018-06-13T00:18:43.769Z,8.60
2018-06-13T00:21:11.965Z,9.90
2018-06-13T00:23:40.135Z,9.40
2018-06-13T00:26:08.324Z,9.73
2018-06-13T00:28:36.524Z,8.53
2018-06-13T00:31:04.698Z,8.60
2018-06-13T00:33:32.900Z,8.95
2018-06-13T00:36:01.067Z,8.07
2018-06-13T00:38:29.216Z,9.00
2018-06-13T00:40:57.368Z,9.50
2018-06-13T00:43:26.450Z,9.53
2018-06-13T00:45:54.600Z,8.13
2018-06-13T00:48:22.779Z,8.93
2018-06-13T00:50:50.933Z,8.73
2018-06-13T00:53:19.108Z,9.23
2018-06-13T00:55:58.544Z,8.88
2018-06-13T00:58:26.717Z,8.80
2018-06-13T01:00:54.872Z,8.23
2018-06-13T01:03:23.033Z,8.73
2018-06-13T01:05:51.202Z,9.20
2018-06-13T01:08:19.365Z,8.50
2018-06-13T01:10:47.512Z,8.90
2018-06-13T01:13:15.663Z,9.27
2018-06-13T01:15:43.907Z,9.00
2018-06-13T01:18:12.130Z,9.10
2018-06-13T01:20:40.284Z,8.50
2018-06-13T01:23:08.456Z,9.57
2018-06-13T01:25:36.589Z,9.20
2018-06-13T01:28:04.791Z,9.08
2018-06-13T01:30:32.958Z,9.30
2018-06-13T01:33:01.121Z,9.00
2018-06-13T01:35:29.278Z,9.23
2018-06-13T01:37:57.484Z,9.33
2018-06-13T01:40:25.636Z,9.20
2018-06-13T01:42:53.851Z,8.80
2018-06-13T01:45:22.005Z,8.10
2018-06-13T01:47:50.151Z,9.30
2018-06-13T01:50:18.295Z,8.40
2018-06-13T01:52:46.440Z,9.00
2018-06-13T01:55:14.624Z,9.10
2018-06-13T01:57:42.805Z,8.47
2018-06-13T02:00:10.980Z,8.83
2018-06-13T02:02:39.176Z,8.23
2018-06-13T02:05:07.310Z,8.90
2018-06-13T02:07:35.443Z,8.50
2018-06-13T02:10:04.512Z,8.10
2018-06-13T02:12:32.657Z,8.80
2018-06-13T02:15:00.820Z,8.73
2018-06-13T02:17:28.981Z,7.83
2018-06-13T02:19:57.177Z,8.17
2018-06-13T02:22:25.311Z,8.13
2018-06-13T02:24:53.479Z,8.80
2018-06-13T02:27:21.694Z,9.27
2018-06-13T02:29:49.808Z,8.30
2018-06-13T02:32:18.005Z,8.57
2018-06-13T02:34:46.154Z,9.23
2018-06-13T02:37:14.323Z,7.53
2018-06-13T02:39:42.511Z,8.00
2018-06-13T02:42:10.680Z,8.30
2018-06-13T02:44:38.828Z,8.08
2018-06-13T02:47:06.996Z,8.33
2018-06-13T02:49:35.172Z,8.03
2018-06-13T02:52:03.339Z,7.27
2018-06-13T02:54:31.486Z,7.55
2018-06-13T02:56:59.635Z,6.83
2018-06-13T02:59:27.792Z,7.50
2018-06-13T03:01:56.025Z,7.10
2018-06-13T03:04:24.189Z,7.83
2018-06-13T03:06:52.366Z,7.03
2018-06-13T03:09:20.526Z,7.23
2018-06-13T03:11:48.683Z,7.40
2018-06-13T03:14:16.888Z,7.30
2018-06-13T03:16:45.077Z,7.50
2018-06-13T03:19:13.230Z,7.67
2018-06-13T03:21:41.353Z,7.97
2018-06-13T03:24:09.508Z,7.57
2018-06-13T03:26:37.659Z,8.13
2018-06-13T03:29:05.863Z,7.67
2018-06-13T03:31:34.016Z,7.10
2018-06-13T03:34:02.180Z,6.90
2018-06-13T03:36:30.351Z,7.50
2018-06-13T03:38:58.495Z,7.50
2018-06-13T03:41:26.660Z,8.17
2018-06-13T03:43:54.824Z,6.80
2018-06-13T03:46:23.008Z,8.00
2018-06-13T03:49:06.284Z,7.77
2018-06-13T03:51:34.471Z,6.70
2018-06-13T03:54:02.636Z,7.53
2018-06-13T03:56:30.779Z,7.60
2018-06-13T03:58:58.963Z,6.70
2018-06-13T04:01:27.120Z,6.70
2018-06-13T04:03:55.288Z,7.37
2018-06-13T04:06:23.441Z,6.90
2018-06-13T04:08:51.632Z,7.50
2018-06-13T04:11:19.853Z,7.42
2018-06-13T04:13:48.076Z,8.17
2018-06-13T04:16:16.212Z,7.93
2018-06-13T04:18:44.373Z,7.63
2018-06-13T04:21:12.555Z,8.30
2018-06-13T04:23:40.707Z,8.57
2018-06-13T04:26:08.916Z,7.77
2018-06-13T04:28:37.072Z,8.27
2018-06-13T04:31:05.224Z,7.17
2018-06-13T04:33:33.436Z,7.55
2018-06-13T04:36:01.617Z,8.53
2018-06-13T04:38:29.781Z,8.73
2018-06-13T04:40:57.924Z,8.23
2018-06-13T04:43:26.160Z,7.90
2018-06-13T04:45:54.298Z,8.07
2018-06-13T04:48:22.461Z,7.63
2018-06-13T04:50:51.020Z,8.07
2018-06-13T04:53:19.183Z,7.83
2018-06-13T04:55:47.352Z,9.47
2018-06-13T04:58:15.554Z,8.43
2018-06-13T05:00:43.687Z,8.70
2018-06-13T05:03:11.844Z,8.50
2018-06-13T05:05:40.076Z,9.23
2018-06-13T05:08:08.244Z,8.10
2018-06-13T05:10:36.452Z,9.30
2018-06-13T05:13:04.650Z,9.70
2018-06-13T05:15:32.804Z,9.97
2018-06-13T05:18:00.985Z,9.53
2018-06-13T05:20:29.152Z,9.60
2018-06-13T05:22:57.324Z,8.90
2018-06-13T05:25:25.490Z,8.83
2018-06-13T05:27:53.687Z,9.43
2018-06-13T05:30:21.844Z,9.77
2018-06-13T05:32:49.991Z,9.67
2018-06-13T05:35:18.167Z,9.50
2018-06-13T05:37:46.468Z,10.07
2018-06-13T05:40:14.665Z,10.00
2018-06-13T05:42:42.808Z,9.23
2018-06-13T05:45:11.012Z,9.80
2018-06-13T05:47:39.146Z,10.10
2018-06-13T05:50:07.344Z,9.75
2018-06-13T05:52:35.508Z,9.67
2018-06-13T05:55:03.643Z,9.17
2018-06-13T05:57:31.836Z,9.90
2018-06-13T05:59:59.988Z,9.03
2018-06-13T06:02:28.164Z,10.40
2018-06-13T06:04:56.327Z,9.10
2018-06-13T06:07:24.500Z,9.58
2018-06-13T06:09:52.682Z,10.03
2018-06-13T06:12:20.868Z,9.90
2018-06-13T06:14:49.044Z,9.97
2018-06-13T06:17:17.217Z,9.97
2018-06-13T06:19:45.387Z,9.53
2018-06-13T06:22:13.634Z,9.70
2018-06-13T06:24:41.792Z,10.30
2018-06-13T06:27:09.957Z,9.33
2018-06-13T06:29:38.168Z,9.13
2018-06-13T06:32:06.356Z,9.50
2018-06-13T06:34:34.516Z,8.53
2018-06-13T06:37:02.689Z,9.80
2018-06-13T06:39:30.880Z,10.10
2018-06-13T06:41:59.035Z,9.70
2018-06-13T06:44:27.220Z,9.40
2018-06-13T06:46:55.346Z,9.30
2018-06-13T06:49:23.529Z,9.45
2018-06-13T06:51:51.678Z,9.67
2018-06-13T06:54:19.853Z,9.27
2018-06-13T06:56:48.030Z,8.97
2018-06-13T06:59:16.224Z,8.40
2018-06-13T07:01:44.407Z,9.30
2018-06-13T07:04:12.571Z,9.90
2018-06-13T07:06:40.775Z,10.38
2018-06-13T07:09:09.210Z,9.77
2018-06-13T07:11:37.382Z,9.30
2018-06-13T07:14:05.576Z,10.43
2018-06-13T07:16:33.825Z,10.97
2018-06-13T07:19:02.048Z,11.00
2018-06-13T07:21:30.158Z,10.43
2018-06-13T07:23:58.364Z,9.90
2018-06-13T07:26:26.568Z,10.00
2018-06-13T07:28:54.776Z,9.35
2018-06-13T07:31:22.963Z,9.57
2018-06-13T07:33:51.239Z,9.93
2018-06-13T07:36:19.400Z,9.60
2018-06-13T07:38:47.599Z,11.08
2018-06-13T07:41:15.780Z,10.10
2018-06-13T07:43:44.027Z,9.83
2018-06-13T07:46:12.213Z,9.57
2018-06-13T07:48:40.412Z,9.33
2018-06-13T07:51:08.563Z,9.60
2018-06-13T07:53:36.755Z,8.63
2018-06-13T07:56:05.085Z,9.30
2018-06-13T07:58:33.272Z,10.10
2018-06-13T08:01:01.583Z,8.90
2018-06-13T08:03:29.796Z,8.93
2018-06-13T08:05:57.968Z,8.60
2018-06-13T08:08:26.181Z,8.60
2018-06-13T08:10:54.285Z,8.20
2018-06-13T08:13:22.488Z,8.30
2018-06-13T08:15:50.637Z,9.23
2018-06-13T08:18:18.810Z,8.30
2018-06-13T08:20:47.012Z,8.47
2018-06-13T08:23:15.254Z,8.03
2018-06-13T08:25:43.423Z,8.03
2018-06-13T08:28:11.590Z,8.00
2018-06-13T08:30:39.779Z,7.53
2018-06-13T08:33:08.019Z,7.50
2018-06-13T08:35:36.216Z,7.93
2018-06-13T08:38:05.608Z,6.90
2018-06-13T08:40:33.820Z,7.00
2018-06-13T08:43:02.016Z,7.00
2018-06-13T08:45:30.186Z,7.47
2018-06-13T08:47:58.359Z,7.90
2018-06-13T08:50:26.541Z,7.80
2018-06-13T08:52:54.751Z,7.63
2018-06-13T08:55:22.975Z,7.50
2018-06-13T08:57:51.147Z,7.67
2018-06-13T09:00:19.363Z,7.57
2018-06-13T09:02:47.521Z,7.90
2018-06-13T09:05:15.687Z,6.80
2018-06-13T09:07:43.850Z,7.97
2018-06-13T09:10:12.111Z,6.10
2018-06-13T09:12:40.290Z,6.30
2018-06-13T09:15:08.506Z,5.73
2018-06-13T09:17:36.702Z,5.53
2018-06-13T09:20:04.878Z,4.93
2018-06-13T09:22:33.113Z,5.57
2018-06-13T09:25:01.203Z,5.47
2018-06-13T09:27:29.383Z,6.17
2018-06-13T09:29:57.560Z,4.93
2018-06-13T09:32:25.743Z,5.13
2018-06-13T09:34:53.958Z,5.00
2018-06-13T09:37:22.203Z,5.67
2018-06-13T09:39:50.355Z,6.10
2018-06-13T09:42:18.520Z,5.33
2018-06-13T09:44:46.693Z,5.00
2018-06-13T09:47:23.181Z,6.07
2018-06-13T09:49:43.056Z,5.40
2018-06-13T09:52:11.234Z,5.90
2018-06-13T09:54:39.397Z,6.80
2018-06-13T09:57:07.563Z,5.07
2018-06-13T09:59:36.215Z,5.03
2018-06-13T10:02:09.857Z,5.20
2018-06-13T10:04:46.892Z,5.17
2018-06-13T10:07:15.069Z,5.93
2018-06-13T10:09:43.248Z,5.50
2018-06-13T10:12:11.416Z,5.67
2018-06-13T10:14:39.599Z,5.57
2018-06-13T10:17:07.752Z,5.37
2018-06-13T10:19:35.943Z,5.27
2018-06-13T10:22:04.094Z,6.08
2018-06-13T10:24:32.268Z,5.87
2018-06-13T10:27:04.664Z,6.70
2018-06-13T10:29:32.827Z,5.20
2018-06-13T10:32:01.014Z,5.37
2018-06-13T10:34:29.171Z,5.70
2018-06-13T10:36:57.344Z,5.60
2018-06-13T10:39:25.520Z,6.03
2018-06-13T10:41:53.704Z,5.23
2018-06-13T10:44:21.888Z,5.87
2018-06-13T10:46:50.043Z,6.67
2018-06-13T10:49:18.214Z,5.70
2018-06-13T10:51:46.391Z,4.83
2018-06-13T10:54:14.526Z,6.00
2018-06-13T10:56:42.676Z,5.60
2018-06-13T10:59:10.839Z,4.73
2018-06-13T11:01:39.012Z,7.40
2018-06-13T11:04:07.195Z,5.50
2018-06-13T11:06:35.370Z,5.67
2018-06-13T11:09:03.608Z,6.13
2018-06-13T11:11:31.812Z,5.57
2018-06-13T11:13:59.980Z,5.40
2018-06-13T11:19:06.643Z,5.53
2018-06-13T11:21:34.879Z,5.40
2018-06-13T11:24:03.086Z,5.73
2018-06-13T11:26:31.268Z,5.50
2018-06-13T11:28:59.437Z,5.17
2018-06-13T11:31:27.636Z,4.97
2018-06-13T11:33:55.753Z,5.13
2018-06-13T11:36:23.927Z,4.80
2018-06-13T11:38:52.147Z,4.97
2018-06-13T11:41:20.352Z,5.00
2018-06-13T11:43:48.616Z,4.83
2018-06-13T11:46:16.780Z,5.00
2018-06-13T11:48:45.027Z,4.60
2018-06-13T11:51:13.305Z,4.50
2018-06-13T11:53:41.617Z,5.20
2018-06-13T11:56:09.740Z,5.07
2018-06-13T11:58:37.879Z,6.00
2018-06-13T12:01:06.095Z,5.00
2018-06-13T12:03:34.315Z,5.20
2018-06-13T12:06:02.517Z,5.07
2018-06-13T12:08:30.661Z,5.20
2018-06-13T12:10:58.979Z,5.40
2018-06-13T12:13:27.164Z,6.07
2018-06-13T12:15:55.411Z,5.97
2018-06-13T12:18:23.583Z,5.80
2018-06-13T12:20:51.747Z,6.43
2018-06-13T12:23:19.939Z,7.33
2018-06-13T12:25:48.092Z,6.93
2018-06-13T12:28:16.271Z,6.60
2018-06-13T12:30:44.423Z,6.30
2018-06-13T12:33:12.803Z,6.70
2018-06-13T12:35:40.961Z,6.23
2018-06-13T12:38:09.110Z,6.13
2018-06-13T12:40:37.271Z,6.23
2018-06-13T12:43:05.513Z,6.20
2018-06-13T12:45:33.739Z,7.53
2018-06-13T12:48:01.924Z,6.63
2018-06-13T12:50:30.136Z,7.70
2018-06-13T12:52:58.322Z,6.57
2018-06-13T12:55:26.475Z,6.40
2018-06-13T12:57:54.654Z,6.67
2018-06-13T13:00:22.867Z,6.47
2018-06-13T13:02:51.068Z,7.07
2018-06-13T13:05:19.191Z,6.27
2018-06-13T13:07:47.364Z,6.60
2018-06-13T13:10:15.620Z,6.73
2018-06-13T13:12:43.783Z,6.23
2018-06-13T13:15:11.935Z,6.57
2018-06-13T13:17:40.128Z,6.97
2018-06-13T13:20:08.345Z,6.43
2018-06-13T13:22:36.502Z,6.20
2018-06-13T13:25:04.706Z,6.10
2018-06-13T13:27:32.875Z,5.50
2018-06-13T13:30:01.047Z,5.63
2018-06-13T13:32:29.199Z,5.97
2018-06-13T13:34:57.437Z,6.43
2018-06-13T13:37:25.592Z,5.60
2018-06-13T13:39:53.823Z,5.25
2018-06-13T13:42:22.008Z,5.27
2018-06-13T13:44:50.199Z,5.47
2018-06-13T13:47:18.360Z,5.30
2018-06-13T13:49:46.564Z,5.57
2018-06-13T13:52:14.710Z,5.03
2018-06-13T13:54:42.880Z,5.63
2018-06-13T13:57:11.035Z,6.17
2018-06-13T13:59:39.206Z,5.10
2018-06-13T14:02:07.421Z,5.60
2018-06-13T14:04:35.593Z,5.87
2018-06-13T14:07:03.762Z,5.40
2018-06-13T14:09:31.917Z,5.87
2018-06-13T14:12:00.103Z,5.33
2018-06-13T14:14:28.283Z,5.13
2018-06-13T14:16:56.440Z,5.60
2018-06-13T14:19:24.616Z,4.83
2018-06-13T14:21:52.772Z,5.63
2018-06-13T14:24:20.935Z,5.27
2018-06-13T14:26:49.111Z,5.20
2018-06-13T14:29:17.685Z,4.90
2018-06-13T14:31:46.659Z,4.90
2018-06-13T14:34:14.926Z,4.87
2018-06-13T14:36:43.106Z,4.80
2018-06-13T14:39:11.706Z,5.00
2018-06-13T14:41:39.870Z,4.83
2018-06-13T14:44:08.662Z,5.00
2018-06-13T14:46:36.828Z,4.37
2018-06-13T14:49:05.037Z,4.80
2018-06-13T14:51:33.220Z,4.30
2018-06-13T14:54:01.422Z,4.40
2018-06-13T14:56:30.855Z,4.65
2018-06-13T14:59:00.458Z,4.50
2018-06-13T15:01:28.821Z,3.73
2018-06-13T15:03:57.021Z,4.57
2018-06-13T15:06:25.620Z,3.65
2018-06-13T15:08:54.238Z,3.83
2018-06-13T15:11:22.408Z,4.13
2018-06-13T15:13:50.637Z,4.10
2018-06-13T15:16:18.768Z,6.67
2018-06-13T15:18:47.117Z,4.67
2018-06-13T15:21:15.591Z,4.33
2018-06-13T15:23:43.770Z,4.00
2018-06-13T15:26:11.952Z,4.43
2018-06-13T15:28:40.155Z,4.78
2018-06-13T15:31:08.335Z,4.53
2018-06-13T15:33:36.541Z,4.23
2018-06-13T15:36:04.851Z,4.63
2018-06-13T15:39:07.717Z,4.30
2018-06-13T15:41:35.913Z,3.63
2018-06-13T15:44:04.087Z,4.10
2018-06-13T15:46:32.249Z,4.20
2018-06-13T15:49:00.477Z,4.10
2018-06-13T15:51:28.624Z,4.17
2018-06-13T15:53:56.843Z,4.03
2018-06-13T15:56:25.032Z,4.60
2018-06-13T15:58:53.271Z,4.22
2018-06-13T16:01:21.448Z,4.10
2018-06-13T16:03:49.612Z,4.37
2018-06-13T16:06:17.801Z,3.97
2018-06-13T16:08:45.951Z,3.97
2018-06-13T16:11:14.107Z,4.80
2018-06-13T16:13:42.246Z,4.87
2018-06-13T16:16:10.434Z,5.70
2018-06-13T16:18:38.598Z,5.10
2018-06-13T16:21:06.793Z,4.92
2018-06-13T16:23:34.962Z,5.10
2018-06-13T16:26:03.131Z,4.73
2018-06-13T16:28:31.313Z,5.30
2018-06-13T16:30:59.475Z,5.00
2018-06-13T16:33:27.637Z,5.03
2018-06-13T16:35:55.840Z,5.07
2018-06-13T16:38:24.048Z,4.83
2018-06-13T16:40:52.216Z,5.97
2018-06-13T16:43:20.383Z,5.58
2018-06-13T16:45:48.564Z,5.10
2018-06-13T16:48:16.752Z,6.00
2018-06-13T16:50:52.177Z,4.83
2018-06-13T16:53:32.500Z,5.72
2018-06-13T16:56:00.688Z,5.70
2018-06-13T16:58:28.845Z,5.87
2018-06-13T17:00:57.109Z,6.20
2018-06-13T17:03:25.276Z,6.60
2018-06-13T17:05:53.436Z,7.00
2018-06-13T17:08:21.646Z,7.40
2018-06-13T17:10:49.811Z,5.60
2018-06-13T17:13:17.975Z,6.37
2018-06-13T17:15:46.139Z,7.20
2018-06-13T17:18:14.316Z,7.47
2018-06-13T17:20:42.508Z,5.57
2018-06-13T17:23:10.690Z,5.13
2018-06-13T17:25:38.904Z,6.28
2018-06-13T17:28:07.065Z,7.87
2018-06-13T17:30:35.205Z,6.50
2018-06-13T17:33:03.374Z,7.87
2018-06-13T17:35:31.549Z,9.77
2018-06-13T17:37:59.741Z,6.60
2018-06-13T17:40:27.863Z,7.77
2018-06-13T17:42:56.164Z,5.03
2018-06-13T17:45:24.384Z,6.27
2018-06-13T17:47:52.572Z,5.50
2018-06-13T17:50:20.756Z,4.97
2018-06-13T17:52:48.914Z,7.73
2018-06-13T17:55:17.104Z,5.90
2018-06-13T17:57:45.291Z,5.80
2018-06-13T18:00:13.466Z,5.80
2018-06-13T18:02:41.647Z,5.90
2018-06-13T18:05:09.824Z,5.50
2018-06-13T18:07:37.988Z,6.90
2018-06-13T18:10:06.157Z,6.30
2018-06-13T18:12:34.324Z,6.00
2018-06-13T18:15:02.512Z,7.10
2018-06-13T18:17:30.675Z,6.50
2018-06-13T18:19:58.912Z,6.45
2018-06-13T18:22:27.141Z,6.37
2018-06-13T18:24:55.288Z,6.80
2018-06-13T18:27:23.519Z,6.10
2018-06-13T18:29:51.640Z,6.23
2018-06-13T18:32:19.811Z,6.63
2018-06-13T18:34:47.961Z,6.07
2018-06-13T18:37:16.124Z,6.70
2018-06-13T18:39:44.291Z,7.10
2018-06-13T18:42:12.456Z,7.43
2018-06-13T18:44:40.617Z,7.00
2018-06-13T18:47:08.889Z,7.97
2018-06-13T18:49:37.224Z,6.70
2018-06-13T18:52:05.561Z,7.10
2018-06-13T18:54:33.684Z,6.80
2018-06-13T18:57:01.893Z,8.23
2018-06-13T18:59:30.067Z,9.83
2018-06-13T19:01:58.239Z,10.00
2018-06-13T19:04:26.483Z,8.20
2018-06-13T19:06:54.664Z,7.30
2018-06-13T19:09:22.840Z,8.50
2018-06-13T19:11:51.029Z,7.13
2018-06-13T19:14:19.197Z,6.60
2018-06-13T19:16:47.543Z,6.07
2018-06-13T19:19:15.812Z,5.40
2018-06-13T19:21:44.027Z,6.33
2018-06-13T19:24:12.200Z,6.10
2018-06-13T19:26:40.399Z,6.58
2018-06-13T19:29:08.615Z,5.63
2018-06-13T19:31:36.772Z,5.50
2018-06-13T19:34:04.985Z,6.57
2018-06-13T19:36:33.239Z,6.00
2018-06-13T19:39:01.387Z,6.37
2018-06-13T19:41:29.583Z,4.63
2018-06-13T19:43:57.764Z,5.53
2018-06-13T19:46:26.014Z,6.13
2018-06-13T19:48:55.039Z,5.00
2018-06-13T19:51:23.235Z,5.50
2018-06-13T19:53:56.838Z,4.90
2018-06-13T19:56:26.980Z,5.43
2018-06-13T19:58:55.184Z,5.08
2018-06-13T20:01:23.368Z,4.80
2018-06-13T20:03:56.875Z,5.07
2018-06-13T20:06:25.087Z,5.03
2018-06-13T20:08:53.295Z,5.37
2018-06-13T20:11:21.555Z,5.37
2018-06-13T20:13:55.152Z,5.10
2018-06-13T20:16:40.135Z,5.30
2018-06-13T20:19:13.756Z,5.07
2018-06-13T20:21:41.967Z,4.47
2018-06-13T20:24:10.165Z,4.83
2018-06-13T20:26:43.804Z,4.73
2018-06-13T20:29:17.334Z,5.00
2018-06-13T20:31:46.793Z,4.07
2018-06-13T20:34:15.023Z,5.03
2018-06-13T20:36:43.209Z,5.17
2018-06-13T20:39:11.951Z,4.42
2018-06-13T20:41:40.786Z,4.70
2018-06-13T20:44:09.412Z,4.90
2018-06-13T20:46:37.712Z,4.50
2018-06-13T20:49:05.880Z,5.13
2018-06-13T20:51:34.065Z,4.53
2018-06-13T20:54:02.268Z,4.57
2018-06-13T20:56:30.776Z,4.60
2018-06-13T20:58:58.942Z,4.60
2018-06-13T21:01:27.289Z,4.50
2018-06-13T21:03:55.782Z,4.60
2018-06-13T21:06:23.976Z,4.23
2018-06-13T21:08:52.143Z,4.43
2018-06-13T21:11:20.321Z,5.10
2018-06-13T21:13:48.494Z,4.50
2018-06-13T21:16:17.043Z,4.83
2018-06-13T21:18:45.216Z,4.77
2018-06-13T21:21:13.406Z,5.10
2018-06-13T21:23:41.584Z,4.80
2018-06-13T21:26:09.775Z,4.53
2018-06-13T21:28:37.967Z,5.57
2018-06-13T21:31:06.135Z,4.70
2018-06-13T21:33:34.353Z,4.92
2018-06-13T21:36:02.511Z,5.30
2018-06-13T21:38:30.694Z,4.77
2018-06-13T21:40:58.871Z,4.53
2018-06-13T21:43:27.058Z,4.87
2018-06-13T21:45:55.276Z,5.20
2018-06-13T21:48:23.439Z,4.80
2018-06-13T21:50:51.592Z,4.97
2018-06-13T21:53:19.815Z,4.90
2018-06-13T21:55:47.992Z,5.03
2018-06-13T21:58:16.179Z,5.50
2018-06-13T22:00:44.340Z,5.10
2018-06-13T22:03:12.531Z,5.10
2018-06-13T22:05:40.805Z,5.10
2018-06-13T22:08:09.040Z,4.37
2018-06-13T22:10:37.234Z,5.27
2018-06-13T22:13:05.409Z,5.07
2018-06-13T22:15:33.580Z,5.07
2018-06-13T22:18:01.808Z,4.85
2018-06-13T22:20:29.966Z,4.77
2018-06-13T22:22:58.152Z,5.40
2018-06-13T22:25:26.351Z,5.63
2018-06-13T22:27:54.547Z,5.37
2018-06-13T22:30:22.730Z,5.07
2018-06-13T22:32:50.916Z,5.40
2018-06-13T22:35:19.122Z,4.90
2018-06-13T22:37:47.284Z,5.10
2018-06-13T22:40:15.505Z,5.70
2018-06-13T22:42:43.695Z,5.40
2018-06-13T22:45:11.848Z,5.17
2018-06-13T22:47:40.032Z,4.83
2018-06-13T22:50:08.217Z,4.55
2018-06-13T22:52:36.415Z,5.10
2018-06-13T22:57:37.144Z,5.30
2018-06-13T23:00:05.326Z,5.27
2018-06-13T23:02:33.517Z,5.70
2018-06-13T23:05:01.706Z,4.70
2018-06-13T23:07:29.856Z,5.23
2018-06-13T23:09:58.052Z,5.53
2018-06-13T23:12:26.244Z,5.20
2018-06-13T23:14:54.442Z,5.37
2018-06-13T23:17:22.654Z,5.57
2018-06-13T23:19:50.828Z,5.50
2018-06-13T23:22:19.039Z,5.47
2018-06-13T23:24:47.199Z,5.73
2018-06-13T23:27:15.386Z,5.40
2018-06-13T23:29:43.574Z,5.45
2018-06-13T23:32:11.744Z,5.77
2018-06-13T23:34:39.906Z,5.33
2018-06-13T23:37:08.089Z,6.40
2018-06-13T23:39:36.290Z,5.70
2018-06-13T23:42:04.468Z,5.63
2018-06-13T23:44:32.656Z,5.77
2018-06-13T23:47:00.875Z,6.63
2018-06-13T23:49:29.114Z,5.90
2018-06-13T23:51:57.331Z,6.00
2018-06-13T23:54:25.508Z,5.67
2018-06-13T23:56:53.689Z,6.13
2018-06-13T23:59:21.856Z,5.40
